New Springfield, Ohio
Current Conditions -  °F | °C
As of 10:47 AM on Thursday 30 Oct 2014 (Local Time) from KBVI Reporting Station
Overcast Overcast  
Wind Chill: 44°   Ceiling: 1500
Heat Index: 46°   Visibility: 10mi
Dew Point: 39°   Wind: 5mph
Humidity: 76%   Direction: 330°NNW
Pressure: 30.1"   Gusts: NA
Location:  40.92°N, 80.61°W
Report Text: KBVI 301447Z 33004KT 10SM BKN015 BKN024 OVC050 08/04 A3010
Loading
Personal Weather Stations






























Interactive Weather Map
Tropical Storm Tracking
New forecast layout! Learn more

10-Day Weather Forecast

Advertisements
Track Severe Weather on mobile